createdAt,value
2022-11-21T00:01:29.056Z,4.30
2022-11-21T00:04:12.837Z,4.73
2022-11-21T00:06:56.657Z,4.57
2022-11-21T00:09:40.475Z,4.70
2022-11-21T00:12:24.136Z,4.93
2022-11-21T00:15:08.501Z,4.80
2022-11-21T00:17:53.976Z,5.37
2022-11-21T00:20:37.825Z,5.10
2022-11-21T00:23:21.577Z,5.40
2022-11-21T00:26:07.297Z,5.33
2022-11-21T00:28:50.956Z,4.93
2022-11-21T00:31:34.692Z,5.27
2022-11-21T00:34:19.797Z,4.83
2022-11-21T00:37:03.483Z,5.13
2022-11-21T00:39:47.177Z,5.03
2022-11-21T00:42:30.961Z,6.00
2022-11-21T00:45:18.335Z,6.00
2022-11-21T00:48:05.315Z,6.17
2022-11-21T00:50:51.224Z,6.33
2022-11-21T00:53:35.392Z,6.73
2022-11-21T00:56:19.212Z,6.40
2022-11-21T00:59:03.414Z,6.20
2022-11-21T01:01:47.492Z,6.00
2022-11-21T01:04:32.465Z,5.47
2022-11-21T01:07:18.228Z,5.70
2022-11-21T01:10:02.268Z,5.27
2022-11-21T01:12:47.306Z,6.17
2022-11-21T01:15:31.276Z,6.50
2022-11-21T01:18:15.195Z,5.93
2022-11-21T01:21:01.163Z,6.07
2022-11-21T01:23:46.636Z,6.30
2022-11-21T01:26:33.025Z,6.43
2022-11-21T01:29:16.777Z,6.13
2022-11-21T01:44:16.298Z,6.00
2022-11-21T01:47:00.246Z,6.27
2022-11-21T01:49:45.929Z,7.30
2022-11-21T01:52:32.655Z,6.57
2022-11-21T01:55:16.594Z,6.70
2022-11-21T01:58:00.414Z,6.83
2022-11-21T02:00:48.609Z,7.10
2022-11-21T02:03:37.573Z,7.80
2022-11-21T02:06:22.015Z,6.40
2022-11-21T02:09:07.265Z,7.73
2022-11-21T02:11:56.009Z,7.30
2022-11-21T02:14:41.546Z,6.73
2022-11-21T02:17:27.508Z,7.27
2022-11-21T02:20:13.760Z,7.17
2022-11-21T02:23:07.131Z,7.60
2022-11-21T02:25:54.313Z,8.60
2022-11-21T02:28:38.610Z,7.77
2022-11-21T02:31:22.565Z,7.60
2022-11-21T02:34:06.803Z,7.37
2022-11-21T02:36:50.822Z,8.00
2022-11-21T02:39:38.408Z,7.90
2022-11-21T02:42:30.357Z,7.37
2022-11-21T02:45:17.838Z,7.37
2022-11-21T02:48:04.175Z,6.57
2022-11-21T02:50:48.995Z,7.20
2022-11-21T02:53:32.992Z,6.80
2022-11-21T02:56:17.237Z,7.97
2022-11-21T02:59:02.818Z,7.73
2022-11-21T03:01:46.665Z,6.50
2022-11-21T03:04:30.568Z,7.00
2022-11-21T03:07:14.854Z,6.93
2022-11-21T03:09:58.819Z,7.20
2022-11-21T03:12:44.054Z,8.37
2022-11-21T03:15:30.846Z,8.47
2022-11-21T03:18:14.875Z,7.03
2022-11-21T03:20:59.505Z,6.93
2022-11-21T03:23:43.396Z,8.33
2022-11-21T03:26:27.305Z,6.93
2022-11-21T03:29:11.227Z,6.37
2022-11-21T03:31:56.559Z,7.17
2022-11-21T03:34:40.512Z,7.33
2022-11-21T03:37:24.541Z,7.07
2022-11-21T03:40:09.739Z,7.83
2022-11-21T03:42:53.468Z,7.37
2022-11-21T03:45:37.365Z,8.67
2022-11-21T03:48:22.960Z,7.97
2022-11-21T03:51:06.923Z,7.67
2022-11-21T03:53:51.218Z,6.90
2022-11-21T03:56:35.000Z,7.27
2022-11-21T03:59:18.706Z,7.77
2022-11-21T04:02:02.493Z,7.80
2022-11-21T04:04:47.757Z,7.60
2022-11-21T04:07:31.751Z,6.73
2022-11-21T04:10:16.059Z,6.77
2022-11-21T04:12:59.761Z,7.13
2022-11-21T04:15:43.891Z,7.30
2022-11-21T04:18:28.070Z,8.13
2022-11-21T04:21:13.238Z,7.70
2022-11-21T04:23:57.202Z,7.07
2022-11-21T04:26:41.137Z,7.30
2022-11-21T04:29:25.055Z,7.50
2022-11-21T04:32:09.083Z,7.03
2022-11-21T04:34:53.045Z,6.97
2022-11-21T04:37:40.662Z,6.83
2022-11-21T04:40:24.624Z,6.57
2022-11-21T04:43:08.546Z,7.00
2022-11-21T04:45:52.653Z,7.47
2022-11-21T04:48:36.985Z,7.05
2022-11-21T04:51:21.047Z,6.70
2022-11-21T04:54:06.812Z,6.53
2022-11-21T04:56:50.867Z,7.27
2022-11-21T04:59:34.792Z,7.63
2022-11-21T05:02:18.797Z,8.10
2022-11-21T05:05:02.720Z,7.07
2022-11-21T05:07:46.733Z,7.22
2022-11-21T05:10:52.068Z,7.63
2022-11-21T05:13:34.958Z,7.47
2022-11-21T05:16:18.807Z,6.50
2022-11-21T05:19:02.795Z,7.80
2022-11-21T05:21:46.776Z,7.43
2022-11-21T05:24:30.875Z,8.07
2022-11-21T05:27:16.387Z,8.10
2022-11-21T05:30:00.353Z,7.40
2022-11-21T05:32:45.416Z,8.52
2022-11-21T05:35:29.365Z,7.60
2022-11-21T05:38:13.422Z,8.23
2022-11-21T05:40:57.253Z,8.23
2022-11-21T05:43:47.383Z,7.77
2022-11-21T05:46:31.373Z,7.60
2022-11-21T05:49:15.527Z,7.22
2022-11-21T05:51:59.494Z,6.45
2022-11-21T05:54:46.050Z,7.47
2022-11-21T05:57:30.268Z,7.03
2022-11-21T06:00:17.275Z,7.68
2022-11-21T06:03:18.901Z,5.80
2022-11-21T06:06:05.467Z,6.13
2022-11-21T06:08:49.373Z,6.68
2022-11-21T06:11:33.270Z,6.17
2022-11-21T06:14:17.222Z,5.63
2022-11-21T06:17:02.933Z,6.07
2022-11-21T06:19:46.891Z,6.28
2022-11-21T06:22:30.862Z,6.30
2022-11-21T06:25:14.979Z,5.28
2022-11-21T06:28:01.242Z,6.18
2022-11-21T06:30:46.422Z,6.28
2022-11-21T06:33:31.782Z,6.43
2022-11-21T06:36:18.019Z,5.72
2022-11-21T06:39:02.414Z,5.90
2022-11-21T06:41:51.190Z,7.18
2022-11-21T06:44:35.370Z,6.35
2022-11-21T06:47:19.296Z,6.15
2022-11-21T06:50:04.943Z,6.77
2022-11-21T06:52:48.614Z,6.83
2022-11-21T06:55:32.674Z,6.20
2022-11-21T06:58:16.544Z,7.32
2022-11-21T07:01:04.740Z,5.03
2022-11-21T07:03:48.700Z,4.90
2022-11-21T07:06:35.784Z,5.63
2022-11-21T07:09:33.255Z,5.80
2022-11-21T07:12:34.678Z,4.95
2022-11-21T07:15:18.534Z,6.25
2022-11-21T07:18:02.469Z,5.18
2022-11-21T07:20:46.796Z,5.03
2022-11-21T07:23:32.725Z,4.32
2022-11-21T07:26:16.645Z,6.63
2022-11-21T07:29:00.665Z,5.53
2022-11-21T07:31:44.459Z,5.82
2022-11-21T07:34:28.164Z,4.47
2022-11-21T07:37:11.898Z,5.47
2022-11-21T07:39:57.240Z,4.93
2022-11-21T07:42:41.228Z,4.97
2022-11-21T07:45:25.109Z,4.72
2022-11-21T07:48:09.402Z,5.28
2022-11-21T07:50:53.210Z,5.22
2022-11-21T07:53:37.066Z,5.20
2022-11-21T07:56:26.483Z,5.93
2022-11-21T07:59:10.517Z,5.35
2022-11-21T08:01:54.490Z,5.22
2022-11-21T08:04:38.212Z,4.78
2022-11-21T08:07:23.944Z,4.57
2022-11-21T08:10:08.519Z,4.72
2022-11-21T08:12:53.725Z,4.53
2022-11-21T08:15:37.921Z,4.35
2022-11-21T08:18:21.681Z,3.83
2022-11-21T08:21:06.206Z,4.57
2022-11-21T08:23:50.309Z,4.30
2022-11-21T08:26:34.110Z,3.92
2022-11-21T08:29:19.283Z,4.07
2022-11-21T08:32:03.505Z,4.47
2022-11-21T08:34:47.277Z,4.60
2022-11-21T08:37:31.193Z,4.65
2022-11-21T08:40:15.191Z,4.38
2022-11-21T08:42:59.343Z,4.28
2022-11-21T08:45:44.520Z,3.75
2022-11-21T08:48:28.190Z,5.65
2022-11-21T08:51:12.042Z,3.75
2022-11-21T08:53:55.858Z,4.68
2022-11-21T08:56:39.652Z,3.80
2022-11-21T08:59:23.383Z,3.85
2022-11-21T09:02:11.605Z,4.40
2022-11-21T09:04:55.565Z,3.63
2022-11-21T09:07:39.278Z,4.15
2022-11-21T09:10:23.005Z,4.13
2022-11-21T09:13:06.808Z,4.47
2022-11-21T09:16:08.179Z,4.85
2022-11-21T09:18:54.515Z,4.65
2022-11-21T09:21:38.199Z,5.13
2022-11-21T09:24:21.986Z,4.45
2022-11-21T09:27:05.788Z,4.70
2022-11-21T09:29:53.842Z,5.85
2022-11-21T09:32:38.163Z,5.57
2022-11-21T09:35:23.415Z,5.32
2022-11-21T09:38:07.707Z,5.43
2022-11-21T09:40:51.526Z,5.05
2022-11-21T09:43:56.690Z,4.97
2022-11-21T09:46:48.340Z,6.20
2022-11-21T09:49:39.472Z,6.00
2022-11-21T09:52:29.253Z,6.43
2022-11-21T09:55:24.833Z,4.82
2022-11-21T09:58:17.479Z,4.75
2022-11-21T10:01:01.526Z,6.57
2022-11-21T10:03:47.953Z,5.88
2022-11-21T10:06:33.919Z,5.45
2022-11-21T10:09:29.512Z,5.15
2022-11-21T10:12:40.870Z,5.03
2022-11-21T10:15:38.245Z,5.70
2022-11-21T10:18:50.746Z,5.55
2022-11-21T10:22:04.338Z,5.43
2022-11-21T10:24:57.795Z,5.03
2022-11-21T10:27:48.640Z,5.43
2022-11-21T10:30:32.506Z,5.65
2022-11-21T10:33:21.544Z,5.72
2022-11-21T10:36:13.820Z,5.63
2022-11-21T10:39:04.262Z,6.22
2022-11-21T10:41:55.978Z,5.38
2022-11-21T10:44:57.427Z,4.57
2022-11-21T10:47:41.197Z,5.50
2022-11-21T10:50:50.282Z,6.10
2022-11-21T10:53:51.773Z,6.00
2022-11-21T10:56:37.556Z,5.75
2022-11-21T10:59:30.522Z,7.10
2022-11-21T11:02:25.381Z,6.55
2022-11-21T11:05:21.536Z,5.63
2022-11-21T11:08:08.760Z,7.03
2022-11-21T11:11:08.632Z,5.30
2022-11-21T11:13:59.888Z,12.25
2022-11-21T11:16:48.432Z,7.40
2022-11-21T11:19:39.786Z,17.50
2022-11-21T11:22:30.163Z,23.05
2022-11-21T11:25:14.381Z,9.55
2022-11-21T11:28:03.958Z,8.50
2022-11-21T11:30:49.031Z,8.30
2022-11-21T11:33:36.773Z,6.07
2022-11-21T11:36:35.707Z,6.20
2022-11-21T11:39:28.851Z,6.50
2022-11-21T11:43:11.063Z,15.32
2022-11-21T11:46:24.824Z,5.95
2022-11-21T11:49:21.307Z,4.07
2022-11-21T11:52:07.994Z,5.35
2022-11-21T11:54:57.225Z,4.30
2022-11-21T11:57:42.680Z,4.00
2022-11-21T12:00:34.516Z,3.33
2022-11-21T12:03:22.748Z,3.53
2022-11-21T12:06:13.438Z,3.00
2022-11-21T12:09:03.280Z,3.30
2022-11-21T12:12:08.133Z,8.38
2022-11-21T12:15:19.057Z,6.28
2022-11-21T12:18:14.342Z,4.07
2022-11-21T12:21:06.235Z,4.85
2022-11-21T12:23:53.569Z,5.35
2022-11-21T12:26:52.179Z,5.03
2022-11-21T12:29:48.736Z,5.53
2022-11-21T12:32:47.168Z,5.95
2022-11-21T12:35:49.034Z,6.18
2022-11-21T12:38:58.723Z,6.70
2022-11-21T12:42:07.985Z,6.75
2022-11-21T12:45:05.879Z,7.15
2022-11-21T12:48:30.875Z,5.90
2022-11-21T12:51:46.895Z,5.60
2022-11-21T12:54:49.799Z,4.97
2022-11-21T12:57:48.001Z,5.30
2022-11-21T13:00:44.122Z,4.80
2022-11-21T13:03:41.033Z,3.90
2022-11-21T13:06:27.337Z,3.53
2022-11-21T13:09:16.535Z,2.93
2022-11-21T13:12:05.952Z,2.90
2022-11-21T13:14:55.964Z,3.13
2022-11-21T13:17:46.510Z,2.87
2022-11-21T13:20:34.145Z,3.00
2022-11-21T13:23:38.158Z,2.73
2022-11-21T13:26:53.578Z,2.83
2022-11-21T13:29:37.366Z,2.50
2022-11-21T13:32:41.702Z,2.70
2022-11-21T13:36:04.985Z,2.00
2022-11-21T13:39:22.293Z,2.60
2022-11-21T13:42:32.965Z,2.30
2022-11-21T13:45:38.958Z,2.40
2022-11-21T13:49:06.000Z,2.00
2022-11-21T13:51:54.789Z,1.80
2022-11-21T13:55:18.536Z,2.20
2022-11-21T13:58:15.330Z,2.17
2022-11-21T14:01:28.495Z,2.20
2022-11-21T14:04:58.299Z,2.40
2022-11-21T14:07:43.953Z,2.53
2022-11-21T14:10:34.376Z,2.10
2022-11-21T14:13:28.053Z,4.43
2022-11-21T14:16:25.132Z,1.73
2022-11-21T14:19:14.979Z,2.00
2022-11-21T14:22:01.703Z,1.80
2022-11-21T14:24:47.205Z,7.33
2022-11-21T14:27:34.151Z,3.60
2022-11-21T14:30:30.807Z,25.80
2022-11-21T14:33:33.143Z,6.30
2022-11-21T14:36:19.962Z,24.40
2022-11-21T14:42:15.877Z,30.10
2022-11-21T14:45:08.118Z,2.50
2022-11-21T14:47:53.528Z,1.83
2022-11-21T14:50:37.360Z,2.53
2022-11-21T14:53:21.291Z,2.87
2022-11-21T14:56:06.615Z,1.30
2022-11-21T14:58:51.742Z,1.90
2022-11-21T15:01:36.082Z,1.00
2022-11-21T15:04:28.467Z,17.10
2022-11-21T15:07:21.051Z,2.10
2022-11-21T15:13:15.448Z,1.80
2022-11-21T15:16:00.579Z,2.00
2022-11-21T15:18:44.460Z,2.23
2022-11-21T15:21:28.471Z,2.00
2022-11-21T15:24:20.440Z,2.00
2022-11-21T15:27:25.338Z,2.43
2022-11-21T15:30:27.025Z,2.60
2022-11-21T15:33:12.685Z,2.50
2022-11-21T15:35:57.973Z,4.80
2022-11-21T15:38:45.511Z,3.87
2022-11-21T15:41:31.088Z,5.57
2022-11-21T15:44:23.467Z,9.93
2022-11-21T15:47:10.359Z,4.97
2022-11-21T15:49:54.359Z,5.57
2022-11-21T15:52:46.029Z,4.37
2022-11-21T15:55:31.588Z,2.70
2022-11-21T15:58:17.503Z,2.60
2022-11-21T16:01:01.778Z,2.83
2022-11-21T16:03:49.498Z,2.90
2022-11-21T16:06:34.337Z,2.47
2022-11-21T16:09:18.148Z,3.00
2022-11-21T16:12:01.979Z,2.73
2022-11-21T16:14:46.937Z,3.07
2022-11-21T16:17:30.738Z,3.07
2022-11-21T16:20:16.132Z,3.70
2022-11-21T16:22:59.891Z,3.37
2022-11-21T16:25:55.942Z,2.70
2022-11-21T16:28:39.705Z,3.13
2022-11-21T16:31:25.459Z,3.03
2022-11-21T16:34:09.304Z,3.80
2022-11-21T16:36:55.747Z,3.37
2022-11-21T16:39:39.526Z,4.03
2022-11-21T16:42:23.219Z,3.30
2022-11-21T16:45:07.839Z,4.17
2022-11-21T16:47:51.579Z,4.10
2022-11-21T16:50:35.741Z,3.10
2022-11-21T16:53:22.217Z,3.40
2022-11-21T16:56:06.279Z,3.30
2022-11-21T16:58:50.294Z,3.63
2022-11-21T17:01:34.591Z,3.17
2022-11-21T17:04:18.904Z,3.70
2022-11-21T17:07:02.979Z,3.00
2022-11-21T17:09:48.240Z,3.40
2022-11-21T17:12:38.980Z,3.17
2022-11-21T17:15:22.941Z,3.20
2022-11-21T17:18:06.841Z,3.07
2022-11-21T17:20:50.663Z,3.30
2022-11-21T17:23:35.144Z,3.43
2022-11-21T17:26:22.078Z,3.90
2022-11-21T17:29:06.248Z,4.27
2022-11-21T17:31:51.900Z,3.80
2022-11-21T17:34:36.134Z,4.33
2022-11-21T17:37:20.120Z,3.70
2022-11-21T17:40:04.161Z,6.10
2022-11-21T17:42:49.293Z,3.30
2022-11-21T17:45:35.532Z,3.13
2022-11-21T17:48:19.407Z,3.60
2022-11-21T17:51:05.260Z,3.70
2022-11-21T17:53:50.337Z,3.60
2022-11-21T17:56:35.352Z,3.53
2022-11-21T17:59:20.480Z,3.70
2022-11-21T18:02:04.548Z,4.13
2022-11-21T18:04:48.902Z,5.10
2022-11-21T18:07:35.617Z,6.10
2022-11-21T18:10:42.054Z,5.20
2022-11-21T18:13:23.196Z,5.20
2022-11-21T18:16:10.912Z,4.80
2022-11-21T18:18:55.013Z,3.30
2022-11-21T18:21:38.997Z,2.60
2022-11-21T18:24:23.041Z,2.57
2022-11-21T18:27:06.857Z,2.90
2022-11-21T18:29:50.852Z,2.70
2022-11-21T18:32:36.046Z,2.80
2022-11-21T18:35:19.977Z,2.67
2022-11-21T18:38:03.795Z,2.80
2022-11-21T18:40:47.686Z,2.40
2022-11-21T18:43:31.589Z,3.70
2022-11-21T18:46:16.412Z,2.70
2022-11-21T18:49:05.875Z,3.13
2022-11-21T18:51:51.444Z,2.50
2022-11-21T18:54:35.695Z,2.93
2022-11-21T18:57:19.857Z,3.87
2022-11-21T19:00:05.057Z,3.40
2022-11-21T19:02:49.084Z,3.63
2022-11-21T19:05:34.416Z,3.30
2022-11-21T19:08:18.252Z,2.30
2022-11-21T19:11:04.116Z,3.17
2022-11-21T19:13:49.027Z,3.60
2022-11-21T19:16:34.503Z,2.97
2022-11-21T19:19:35.322Z,2.50
2022-11-21T19:22:21.161Z,2.17
2022-11-21T19:25:05.460Z,1.73
2022-11-21T19:27:49.378Z,1.50
2022-11-21T19:30:33.438Z,1.70
2022-11-21T19:33:17.428Z,1.60
2022-11-21T19:36:03.286Z,1.30
2022-11-21T19:38:51.249Z,1.37
2022-11-21T19:41:35.755Z,1.50
2022-11-21T19:44:20.058Z,1.77
2022-11-21T19:47:05.477Z,1.70
2022-11-21T19:49:49.462Z,1.53
2022-11-21T19:52:33.475Z,1.93
2022-11-21T19:55:18.954Z,2.03
2022-11-21T19:58:02.879Z,1.53
2022-11-21T20:00:47.090Z,1.80
2022-11-21T20:03:31.200Z,2.20
2022-11-21T20:06:17.447Z,2.17
2022-11-21T20:09:03.820Z,2.10
2022-11-21T20:11:51.212Z,1.70
2022-11-21T20:14:35.231Z,2.10
2022-11-21T20:17:19.215Z,2.10
2022-11-21T20:20:03.248Z,1.80
2022-11-21T20:22:47.757Z,2.27
2022-11-21T20:25:31.765Z,2.17
2022-11-21T20:28:17.098Z,2.43
2022-11-21T20:31:09.516Z,2.30
2022-11-21T20:36:56.355Z,1.90
2022-11-21T20:39:40.261Z,2.00
2022-11-21T20:42:24.230Z,1.23
2022-11-21T20:46:07.333Z,1.67
2022-11-21T20:48:19.934Z,1.90
2022-11-21T20:54:08.587Z,2.00
2022-11-21T20:56:52.643Z,1.87
2022-11-21T20:59:36.426Z,2.17
2022-11-21T21:02:21.578Z,1.60
2022-11-21T21:05:05.782Z,2.10
2022-11-21T21:07:49.540Z,1.83
2022-11-21T21:10:57.926Z,2.13
2022-11-21T21:13:37.175Z,1.80
2022-11-21T21:16:23.487Z,1.90
2022-11-21T21:19:08.635Z,2.10
2022-11-21T21:21:52.333Z,2.00
2022-11-21T21:24:36.114Z,2.17
2022-11-21T21:27:19.946Z,2.03
2022-11-21T21:30:03.989Z,2.17
2022-11-21T21:32:48.839Z,2.50
2022-11-21T21:35:37.267Z,2.13
2022-11-21T21:38:21.235Z,2.60
2022-11-21T21:41:05.508Z,2.63
2022-11-21T21:43:50.956Z,2.63
2022-11-21T21:46:34.974Z,2.87
2022-11-21T21:49:19.009Z,3.10
2022-11-21T21:52:04.649Z,2.90
2022-11-21T21:54:49.155Z,3.37
2022-11-21T21:57:33.178Z,2.83
2022-11-21T22:00:17.207Z,3.97
2022-11-21T22:03:03.095Z,3.33
2022-11-21T22:05:47.596Z,3.33
2022-11-21T22:08:34.400Z,3.67
2022-11-21T22:11:19.848Z,4.03
2022-11-21T22:14:06.229Z,4.17
2022-11-21T22:16:50.274Z,3.77
2022-11-21T22:19:34.255Z,4.50
2022-11-21T22:22:18.303Z,4.20
2022-11-21T22:25:03.557Z,4.53
2022-11-21T22:27:47.381Z,5.20
2022-11-21T22:30:31.078Z,4.27
2022-11-21T22:33:17.058Z,4.97
2022-11-21T22:36:01.976Z,4.93
2022-11-21T22:38:46.083Z,5.20
2022-11-21T22:41:31.553Z,5.47
2022-11-21T22:44:15.289Z,5.20
2022-11-21T22:46:59.761Z,5.30
2022-11-21T22:49:43.546Z,5.77
2022-11-21T22:52:27.457Z,5.77
2022-11-21T22:55:11.272Z,6.33
2022-11-21T22:57:58.579Z,7.40
2022-11-21T23:00:42.283Z,6.50
2022-11-21T23:03:26.024Z,6.47
2022-11-21T23:06:11.702Z,6.50
2022-11-21T23:08:57.722Z,6.13
2022-11-21T23:11:41.463Z,7.00
2022-11-21T23:14:26.755Z,7.00
2022-11-21T23:17:10.639Z,6.40
2022-11-21T23:19:54.469Z,7.17
2022-11-21T23:22:38.268Z,7.23
2022-11-21T23:25:22.028Z,7.60
2022-11-21T23:28:06.007Z,6.93
2022-11-21T23:30:51.796Z,7.40
2022-11-21T23:33:35.560Z,7.73
2022-11-21T23:36:19.366Z,7.80
2022-11-21T23:39:03.201Z,7.60
2022-11-21T23:41:46.830Z,9.13
2022-11-21T23:44:30.520Z,9.10
2022-11-21T23:47:15.650Z,9.00
2022-11-21T23:49:59.401Z,9.90
2022-11-21T23:52:43.158Z,10.20
2022-11-21T23:55:26.839Z,10.00
2022-11-21T23:58:10.689Z,10.50
